Logo AVAMET
Benvolgut visitant, si us plau, ingressa Recuperar contrasenya
AVAMET paisatges
Union Alcoyana

l′Atzúbia Forna

Dades diàries. Acumulats / Últims 30 dies disponibles

Data Temperatura (°C) Humitat rel. (%) Pressió rel. (hPa) Vent (km/h) Precipitació
Mínima Mitjana Màxima Amplitud
tèrmica
Mínima Mitjana Màxima Mínima Mitjana Màxima Predom. Mitjana Ràfega
màxima
Total
(mm)
Índex-n
Mínima Mitjana Màxima Mínima Mitjana Màxima n
0 a 1
P0 max
mm 5'
Dades mensuals acumulades fins l'últim dia disponible
04/2021 7,1 10,0 12,6 13,6 12,6 18,2 27,1 20,0 27 80 98 1.009 1.019 1.027   1,4 29,0 60,2
Dades anuals acumulades fins l'últim dia disponible
2021 1,7 9,2 16,7 12,7 7,2 17,2 27,8 26,1 27 73 98 1.002 1.020 1.037   2,1 49,9 357,2
Últims 30 dies disponibles
16-04-2021 7,1     11,7     17,1 10,0 59 82 96 1.016 1.018 1.020 SSE 1,9 16,1 8,6
15-04-2021 9,9     11,4     13,0 3,1 90 93 95 1.017 1.018 1.020 SSE 0,2 9,7 10,4 0,27 1,10
14-04-2021 10,2     12,6     15,6 5,4 76 86 93 1.019 1.021 1.023 SE 0,5 12,9 0,0
13-04-2021 9,6     13,4     19,1 9,5 61 82 94 1.022 1.024 1.026 WNW 0,8 17,7 0,0
12-04-2021 10,6     13,2     17,0 6,4 60 82 95 1.021 1.024 1.026 SSE 1,6 16,1 0,4
11-04-2021 10,2     15,6     22,5 12,3 58 81 98 1.013 1.015 1.021 WNW 1,4 24,1 0,8
10-04-2021 11,2     11,7     12,6 1,4 92 95 97 1.014 1.017 1.020 NW 0,3 11,3 10,2 0,26 0,90
09-04-2021 8,4     11,0     13,3 4,9 84 90 95 1.020 1.022 1.024 NW 0,3 11,3 3,6 0,42 0,80
08-04-2021 8,9     11,7     16,1 7,2 56 77 96 1.023 1.026 1.027 SE 1,1 14,5 0,0
07-04-2021 9,0     11,4     14,8 5,8 78 91 96 1.013 1.020 1.026 WNW 1,3 19,3 24,6 0,36 2,60
06-04-2021 12,6     18,5     27,1 14,5 27 62 88 1.009 1.012 1.016 WNW 3,7 27,4 0,0
05-04-2021 9,4     15,5     22,8 13,4 52 74 92 1.015 1.018 1.020 NW 1,4 14,5 0,0
04-04-2021 10,4     13,8     15,4 5,0 73 80 90 1.012 1.016 1.020 NW 1,9 11,3 0,0
03-04-2021 12,1     16,4     22,4 10,3 49 70 88 1.011 1.012 1.014 WNW 2,1 16,1 0,0
02-04-2021 10,6     16,6     23,9 13,3 43 62 89 1.012 1.015 1.018 NW 2,6 29,0 1,6
01-04-2021 9,1     13,3     18,7 9,6 49 74 85 1.017 1.020 1.024 NW 1,6 12,9 0,0
31-03-2021 9,1     13,2     19,5 10,4 43 76 95 1.023 1.025 1.028 SO 1,2 14,5 0,0
30-03-2021 11,2     14,4     19,6 8,4 55 81 93 1.028 1.030 1.032 NW 1,6 14,5 0,0
29-03-2021 10,7     13,7     17,9 7,2 67 85 94 1.030 1.031 1.032 WNW 1,8 20,9 0,0
28-03-2021 11,0     13,4     17,6 6,6 65 80 92 1.029 1.031 1.032 NW 2,3 14,5 0,0
27-03-2021 12,0     13,7     16,9 4,9 76 86 94 1.023 1.027 1.030 SSE 1,9 17,7 0,0
26-03-2021 9,5     15,6     22,3 12,8 62 81 96 1.019 1.022 1.024 SSE 0,8 9,7 0,0
25-03-2021 9,2     14,2     20,9 11,7 63 82 96 1.022 1.024 1.025 SE 1,0 11,3 0,2
24-03-2021 8,2     13,4     19,6 11,4 59 80 92 1.024 1.025 1.027 SE 1,4 16,1 0,0
23-03-2021 7,9     13,9     20,2 12,3 50 69 86 1.020 1.022 1.024 WNW 1,6 12,9 0,0
22-03-2021 7,2     12,3     17,9 10,7 38 57 72 1.016 1.018 1.020 WNW 2,9 17,7 0,0
21-03-2021 5,8     10,6     17,0 11,2 35 63 85 1.017 1.020 1.022 NW 2,6 17,7 0,0
20-03-2021 4,8     7,4     10,4 5,6 62 82 94 1.014 1.017 1.021 SSE 2,6 22,5 6,8
19-03-2021 5,7     8,3     11,5 5,8 56 79 95 1.010 1.014 1.018 WNW 1,3 14,5 4,0
18-03-2021 5,3     8,6     15,7 10,4 62 89 96 1.017 1.020 1.021 WNW 1,8 20,9 28,6
Últims 13 mesos disponibles
03/2021 4,8 9,1 12,2 12,7 10,4 17,3 24,4 19,6 53 78 96 1.014 1.023 1.031 SSE 1,7 22,5 118,2
02/2021 5,9 10,4 16,1 13,7 13,5 18,0 22,8 16,9 50 73 93 1.004 1.020 1.035 NW 2,1 35,4 8,4
01/2021 1,7 7,8 16,7 11,4 7,2 15,8 27,8 26,1 38 64 96 1.007 1.017 1.028 NE 2,9 49,9 170,4
12/2020 3,2 8,8 13,9 12,6 12,1 17,0 22,6 19,4 42 64 86 998 1.015 1.028 NW 2,9 38,6 7,4
11/2020 7,9 12,2 16,8 15,3 13,3 19,9 26,0 18,1 69 84 97 1.007 1.022 1.030 WNW 1,2 29,0 166,0
10/2020 10,5 14,2 19,5 19,0 20,4 24,7 32,2 21,7 44 61 85 999 1.018 1.026 WNW 2,1 40,2 6,8
09/2020 14,3 18,3 21,8 23,0 23,9 28,6 32,9 18,6 38 68 90 1.012 1.018 1.024 WNW 1,8 25,7 65,8
08/2020 16,3 22,0 23,8 27,4 26,1 33,6 40,6 24,3 39 68 87 1.005 1.014 1.019 WNW 1,6 29,0 18,6
07/2020 18,5 21,4 23,4 26,4 27,8 32,3 37,9 19,4 56 72 82 1.011 1.016 1.020 SSE 1,7 38,6 4,8
06/2020 13,9 17,9 21,7 23,5 20,9 29,8 33,4 19,5 44 69 88 1.005 1.015 1.021 WNW 2,0 35,4 4,4
05/2020 12,4 15,6 19,1 20,9 18,6 27,1 32,9 20,5 48 69 90 1.006 1.017 1.027 NW 2,0 32,2 68,8
04/2020 8,3 11,9 17,9 15,4 14,7 20,1 26,7 18,4 48 79 96 1.006 1.016 1.026 NW 1,5 27,4 94,4
03/2020 6,6 10,5 15,3 14,0 10,2 18,3 26,9 20,3 45 73 96 1.007 1.018 1.027 NW 2,4 41,8 148,0
Tots els anys disponibles
2020 3,2 14,3 23,8 18,7 10,2 24,1 40,6 37,4 33 71 97 998 1.018 1.033 NW 1,9 51,5 869,2
2019 3,9 14,7 26,3 19,2 11,9 24,7 40,0 36,1 33 67 96 999 1.017 1.034 NW 2,2 57,9 1.319,6
2018 2,6 14,6 25,4 18,9 6,8 24,2 39,3 36,7 44 77 97 1.001 1.017 1.028 NW 2,5 72,2 778,8
2017 -0,4 14,9 26,4 18,2 7,4 22,1 36,7 37,1 3,2 40,7 672,0
2016 4,6 15,1 27,6 18,4 11,1 22,4 39,6 35,0 52 53 53 1.018 1.018 1.019 3,2 50,0 597,6
2015 2,1 15,2 25,6 18,9 7,4 22,6 42,3 40,2 51 61 70 1.012 1.017 1.027 45,0 773,6
Temperatura (°C)
Humitat relativa (%)
Velocitat del vent i ràfega màxima (km/h)
Direcció del vent (°)
Pressió (hPa)
Precipitació (mm)
Nota sobre les dades: s'avisa a l'usuari de la provisionalitat i no oficialitat d'aquestes dades
Logo AVAMET blanc
Web allotjada a Sollutia
Llicència de Creative CommonsLa web d'AVAMET i els seus continguts estan subjectes a una llicència de
Reconeixement - No Comercial - Compartir igual
Avís legal - Política de privacitat - Política de cookies
NOVES ESTACIONS: Vilafranca - la Pobla del Bellestar (Ajuntament/Soci), la Serratella (Ajuntament/Soci),  Xixona - Cantal del Tormo (Soci),  Castelló de la Plana - Edifici Capitol (Soci),  Algimia de Almonacid (Soci),  Ontinyent - Ombría dels Frares (Soci), Confrides - Font de Fuster - - -